Airfield :
LOGIN :

Register | Disclaimer

   EN    FR    IT 

 










Legend :    VFR   Marginal VFR   IFR   Intensive IFR   Very Intensive IFR
Visi :
Ceiling :
>= 8 km
>= 3000ft
5 to 8 km
1000 to 3000 ft
1500m to 5 km
500 to 1000 ft
800 to 1500m
200 to 500 ft
< 800m
< 200 ft
Symbols :   Thunderstorms  Fog  Heavy snow  Heavy precipitations  Wind > 20 kt
SIGMETs :     Misc.  Thunderstorms  Icing  Turbulence  Mountain Waves  Volcanic Ashes






- Airport Elevation : 348 ft
- IATA code : STN


EGSS - London Stansted

CURRENT METAR :
  • 210920Z AUTO 33008KT 9999 OVC036 19/13 Q1010

EXPIRED METARs :
  • 210850Z AUTO 33008KT 290V010 9999 FEW018 BKN035 18/14 Q1010
  • 210820Z AUTO 32008KT 270V350 9999 SCT016 BKN037 17/14 Q1010
  • 210750Z AUTO 31009KT 280V350 9999 BKN013 BKN033 17/14 Q1009
  • 210720Z AUTO 32007KT 290V360 9999 SCT012 OVC028 17/15 Q1009
  • 210650Z AUTO 32007KT 290V350 9999 FEW005 SCT009 OVC024 16/15 Q1009
  • 210620Z AUTO 29007KT 9999 OVC004 16/16 Q1008
  • 210550Z AUTO 31005KT 9999 -RA BKN006 OVC016 17/16 Q1008
  • 210520Z AUTO 30005KT 260V330 9000 -RA BKN005 BKN009 OVC013 17/16 Q1008
  • 210420Z AUTO 25004KT 9999 FEW008 BKN022 OVC027 17/17 Q1007

TAF AMD TAF EGSS
Valid from the 21 at 07:00 until the 22 at 12:00 UTC


210753Z 2107/2212 29010KT 9999 BKN010
BECMG 2107/2110 SCT045
BECMG 2200/2203 20010KT
TEMPO 2205/2210 BKN010
PROB30
TEMPO 2205/2210 6000 -DZ
TEMPO 2210/2212 6000 SHRA
ATIS : +44 1279 669 325



MET'MAP, your aeronautical weather chart ! - Copyright ORBIFLY December 2007 - Disclaimer

ORBIFLY MET'MAP TEAM :

Programming & Development : Alexandra Zaïnal
Original concept : Baudouin d'Aumeries
Technical & hardware support : Manuel Goepfert
Assistance : Marc-Olivier Méhu




SOURCES & CREDITS :

   NOAA